Terminal Aerodrome Forecast
Issued by NWS

Home | Current Version | Previous Version | Text Only | Print | Product List | Glossary On
Versions: 1 2 3 4 5 6 7 8 9 10 11 12 13 14 15 16
570
FTUS46 KPDT 220936 AAA
TAFDLS
TAF AMD
KDLS 220936Z 2210/2306 30010G20KT 6SM -RA BR SCT070 OVC100
      TEMPO 2210/2212 5SM -RA BR
     FM221700 30030G38KT P6SM SCT080 BKN250
     FM222200 30025G35KT P6SM SCT100 BKN250=

USA.gov is the U.S. government's official web portal to all federal, state and local government web resources and services.